Terminal Aerodrome Forecast
Issued by NWS Springfield, MO

Home | Current Version | Previous Version | Text Only | Print | Product List | Glossary On
Versions: 1 2 3 4 5 6 7 8 9 10 11 12 13 14 15 16 17 18 19 20
000
FTUS43 KSGF 212100 AAA
TAFSGF
TAF AMD
KSGF 212151Z 2122/2218 26007KT P6SM -SHRA VCTS SCT015 OVC025CB
     FM220200 33005KT P6SM BKN100
     FM220700 35006KT P6SM SKC=

USA.gov is the U.S. government's official web portal to all federal, state and local government web resources and services.